createdAt,value
2022-10-23T10:35:00.104Z,73.58
2022-10-23T10:35:59.984Z,73.91
2022-10-23T10:36:59.968Z,74.51
2022-10-23T10:37:59.973Z,74.21
2022-10-23T10:38:59.961Z,72.19
2022-10-23T10:39:59.957Z,73.18
2022-10-23T10:40:59.932Z,73.11
2022-10-23T10:41:59.921Z,72.55
2022-10-23T10:42:59.916Z,74.05
2022-10-23T10:43:59.929Z,71.72
2022-10-23T10:44:59.986Z,76.32
2022-10-23T10:45:59.876Z,72.76
2022-10-23T10:46:59.869Z,73.69
2022-10-23T10:47:59.909Z,76.83
2022-10-23T10:48:59.877Z,76.43
2022-10-23T10:49:59.850Z,76.63
2022-10-23T10:50:59.900Z,79.19
2022-10-23T10:51:59.864Z,77.66
2022-10-23T10:52:59.828Z,75.16
2022-10-23T10:53:59.783Z,75.92
2022-10-23T10:54:59.873Z,75.62
2022-10-23T10:55:59.828Z,77.75
2022-10-23T10:56:59.825Z,75.96
2022-10-23T10:58:00.118Z,77.99
2022-10-23T10:58:59.752Z,76.89
2022-10-23T10:59:59.753Z,77.13
2022-10-23T11:00:59.848Z,76.19
2022-10-23T11:01:59.928Z,76.93
2022-10-23T11:02:59.691Z,78.17
2022-10-23T11:03:59.708Z,80.19
2022-10-23T11:04:59.736Z,77.59
2022-10-23T11:06:59.667Z,78.79
2022-10-23T11:07:59.664Z,77.09
2022-10-23T11:09:19.217Z,80.09
2022-10-23T11:10:00.633Z,79.99
2022-10-23T11:10:59.675Z,78.85
2022-10-23T11:11:59.596Z,77.15
2022-10-23T11:12:59.587Z,76.76
2022-10-23T11:13:59.592Z,75.65
2022-10-23T11:14:59.567Z,77.66
2022-10-23T11:15:59.648Z,78.61
2022-10-23T11:16:59.536Z,74.68
2022-10-23T11:17:59.546Z,74.19
2022-10-23T11:18:59.515Z,77.58
2022-10-23T11:19:59.559Z,76.28
2022-10-23T11:20:59.525Z,77.68
2022-10-23T11:21:59.532Z,74.38
2022-10-23T11:22:59.556Z,74.88
2022-10-23T11:23:59.594Z,74.92
2022-10-23T11:24:59.471Z,75.05
2022-10-23T11:25:59.507Z,75.46
2022-10-23T11:26:59.525Z,76.76
2022-10-23T11:28:03.575Z,77.36
2022-10-23T11:29:00.434Z,75.99
2022-10-23T11:29:59.438Z,76.89
2022-10-23T11:30:59.451Z,77.06
2022-10-23T11:31:59.397Z,78.05
2022-10-23T11:32:59.390Z,76.82
2022-10-23T11:33:59.362Z,76.65
2022-10-23T11:34:59.449Z,76.45
2022-10-23T11:35:59.392Z,75.99
2022-10-23T11:36:59.321Z,78.49
2022-10-23T11:37:59.323Z,80.09
2022-10-23T11:38:59.330Z,78.89
2022-10-23T11:39:59.391Z,80.79
2022-10-23T11:40:59.293Z,76.53
2022-10-23T11:41:59.269Z,77.53
2022-10-23T11:42:59.329Z,77.99
2022-10-23T11:43:59.328Z,78.63
2022-10-23T11:44:59.368Z,78.69
2022-10-23T11:45:59.283Z,76.59
2022-10-23T11:46:59.218Z,76.43
2022-10-23T11:47:59.231Z,80.53
2022-10-23T11:48:59.295Z,77.67
2022-10-23T11:49:59.225Z,78.10
2022-10-23T11:51:01.519Z,78.10
2022-10-23T11:52:00.172Z,77.30
2022-10-23T11:53:15.587Z,77.91
2022-10-23T11:54:00.145Z,77.70
2022-10-23T11:54:59.158Z,79.47
2022-10-23T11:55:59.133Z,77.56
2022-10-23T11:56:59.186Z,77.99
2022-10-23T11:57:59.124Z,78.96
2022-10-23T11:58:59.109Z,75.98
2022-10-23T11:59:59.135Z,75.51
2022-10-23T12:00:59.152Z,74.02
2022-10-23T12:01:59.147Z,73.78
2022-10-23T12:02:59.469Z,73.68
2022-10-23T12:03:59.043Z,73.77
2022-10-23T12:04:59.032Z,71.51
2022-10-23T12:05:59.043Z,73.48
2022-10-23T12:06:59.017Z,77.87
2022-10-23T12:07:59.008Z,73.05
2022-10-23T12:08:59.032Z,75.74
2022-10-23T12:09:59.028Z,76.50
2022-10-23T12:10:59.013Z,73.68
2022-10-23T12:11:58.974Z,72.85
2022-10-23T12:12:58.943Z,75.67
2022-10-23T12:13:58.979Z,77.46
2022-10-23T12:14:58.956Z,74.50
2022-10-23T12:16:00.914Z,73.50
2022-10-23T12:16:58.912Z,73.21
2022-10-23T12:17:58.952Z,72.91
2022-10-23T12:18:58.880Z,76.06
2022-10-23T12:19:58.926Z,73.41
2022-10-23T12:20:58.855Z,72.91
2022-10-23T12:21:58.882Z,72.25
2022-10-23T12:22:58.826Z,72.64
2022-10-23T12:23:58.824Z,75.57
2022-10-23T12:24:58.843Z,76.03
2022-10-23T12:25:58.860Z,78.97
2022-10-23T12:26:58.802Z,74.33
2022-10-23T12:27:58.813Z,75.73
2022-10-23T12:28:58.772Z,74.00
2022-10-23T12:29:58.785Z,76.75
2022-10-23T12:30:58.754Z,73.24
2022-10-23T12:31:58.781Z,72.84
2022-10-23T12:32:58.760Z,74.79
2022-10-23T12:33:58.757Z,72.90
2022-10-23T12:34:58.725Z,71.81
2022-10-23T12:35:58.739Z,73.83
2022-10-23T12:36:58.691Z,73.63
2022-10-23T12:37:58.683Z,72.80
2022-10-23T12:38:58.797Z,73.43
2022-10-23T12:39:58.753Z,72.80
2022-10-23T12:40:58.638Z,69.79
2022-10-23T12:41:58.645Z,69.46
2022-10-23T12:42:58.636Z,67.31
2022-10-23T12:43:58.607Z,67.84
2022-10-23T12:44:58.632Z,71.70
2022-10-23T12:45:58.679Z,71.57
2022-10-23T12:46:58.698Z,68.20
2022-10-23T12:47:58.584Z,69.46
2022-10-23T12:48:58.568Z,69.39
2022-10-23T12:49:58.580Z,71.37
2022-10-23T12:50:58.555Z,70.81
2022-10-23T12:51:58.532Z,71.54
2022-10-23T12:52:58.527Z,71.11
2022-10-23T12:53:58.508Z,73.43
2022-10-23T12:54:58.515Z,73.90
2022-10-23T12:56:58.495Z,76.96
2022-10-23T12:57:58.479Z,76.66
2022-10-23T12:58:58.470Z,77.52
2022-10-23T12:59:58.836Z,76.92
2022-10-23T13:00:58.524Z,76.82
2022-10-23T13:01:58.560Z,74.63
2022-10-23T13:02:58.482Z,76.03
2022-10-23T13:03:58.398Z,75.43
2022-10-23T13:04:58.424Z,76.56
2022-10-23T13:05:58.425Z,76.86
2022-10-23T13:06:58.366Z,76.76
2022-10-23T13:07:58.421Z,79.28
2022-10-23T13:09:10.880Z,78.06
2022-10-23T13:10:10.849Z,77.89
2022-10-23T13:11:10.845Z,76.73
2022-10-23T13:12:10.820Z,79.27
2022-10-23T13:13:10.819Z,78.97
2022-10-23T13:14:10.833Z,79.90
2022-10-23T13:15:10.793Z,80.20
2022-10-23T13:16:10.821Z,80.60
2022-10-23T13:17:10.870Z,79.57
2022-10-23T13:18:10.782Z,78.56
2022-10-23T13:19:10.835Z,79.06
2022-10-23T13:20:10.737Z,78.83
2022-10-23T13:21:10.752Z,78.73
2022-10-23T13:22:10.780Z,77.47
2022-10-23T13:23:10.795Z,78.92
2022-10-23T13:24:10.752Z,79.82
2022-10-23T13:25:10.705Z,79.03
2022-10-23T13:26:10.678Z,80.32
2022-10-23T13:27:10.780Z,78.73
2022-10-23T13:28:10.682Z,77.17
2022-10-23T13:29:11.143Z,77.27
2022-10-23T13:30:10.894Z,76.41
2022-10-23T13:31:10.630Z,76.61
2022-10-23T13:32:10.619Z,77.11
2022-10-23T13:33:10.641Z,78.80
2022-10-23T13:34:10.611Z,76.54
2022-10-23T13:35:21.358Z,78.84
2022-10-23T13:36:11.599Z,81.93
2022-10-23T13:37:10.551Z,80.83
2022-10-23T13:38:10.541Z,80.44
2022-10-23T13:39:10.567Z,81.63
2022-10-23T13:40:10.521Z,80.00
2022-10-23T13:41:10.523Z,80.70
2022-10-23T13:42:10.509Z,77.47
2022-10-23T13:43:10.494Z,78.07
2022-10-23T13:44:10.488Z,76.87
2022-10-23T13:45:10.678Z,77.27
2022-10-23T13:46:10.497Z,76.47
2022-10-23T13:47:10.463Z,77.31
2022-10-23T13:48:10.501Z,77.81
2022-10-23T13:49:10.513Z,78.20
2022-10-23T13:50:10.437Z,79.50
2022-10-23T13:51:10.462Z,82.50
2022-10-23T13:52:10.415Z,81.70
2022-10-23T13:53:10.387Z,81.90
2022-10-23T13:54:10.400Z,85.03
2022-10-23T13:55:10.417Z,82.59
2022-10-23T13:56:10.366Z,81.79
2022-10-23T13:57:10.349Z,81.10
2022-10-23T13:58:10.351Z,81.56
2022-10-23T13:59:10.404Z,77.40
2022-10-23T14:00:10.318Z,77.51
2022-10-23T14:01:10.437Z,77.70
2022-10-23T14:02:10.437Z,78.97
2022-10-23T14:03:10.309Z,80.46
2022-10-23T14:04:10.280Z,78.17
2022-10-23T14:05:10.325Z,78.24
2022-10-23T14:06:10.245Z,78.44
2022-10-23T14:07:10.231Z,79.64
2022-10-23T14:08:10.225Z,79.34
2022-10-23T14:09:10.337Z,80.24
2022-10-23T14:10:10.198Z,83.13
2022-10-23T14:11:10.221Z,83.23
2022-10-23T14:12:10.172Z,82.64
2022-10-23T14:13:10.175Z,82.53
2022-10-23T14:14:10.169Z,82.77
2022-10-23T14:15:10.185Z,82.93
2022-10-23T14:16:10.125Z,81.73
2022-10-23T14:17:10.156Z,80.77
2022-10-23T14:18:10.134Z,82.23
2022-10-23T14:19:10.373Z,82.39
2022-10-23T14:20:10.095Z,81.99
2022-10-23T14:21:10.111Z,81.79
2022-10-23T14:22:10.102Z,80.20
2022-10-23T14:23:10.135Z,80.20
2022-10-23T14:24:10.133Z,80.50
2022-10-23T14:25:10.074Z,80.10
2022-10-23T14:26:10.024Z,80.80
2022-10-23T14:27:10.010Z,81.84
2022-10-23T14:28:10.039Z,80.74
2022-10-23T14:29:16.262Z,81.07
2022-10-23T14:30:10.981Z,82.14
2022-10-23T14:31:09.972Z,82.51
2022-10-23T14:32:10.061Z,84.61
2022-10-23T14:33:10.016Z,83.91
2022-10-23T14:34:10.026Z,84.01
2022-10-23T14:35:09.951Z,84.75
2022-10-23T14:36:09.990Z,85.25
2022-10-23T14:37:09.954Z,86.25
2022-10-23T14:38:09.903Z,85.65
2022-10-23T14:39:09.919Z,85.85
2022-10-23T14:40:09.902Z,86.35
2022-10-23T14:41:09.879Z,87.05
2022-10-23T14:42:09.844Z,86.29
2022-10-23T14:43:09.867Z,87.09
2022-10-23T14:44:09.901Z,84.79
2022-10-23T14:45:09.825Z,85.85
2022-10-23T14:46:09.832Z,86.65
2022-10-23T14:47:09.840Z,86.75
2022-10-23T14:48:09.795Z,86.55
2022-10-23T14:49:09.799Z,86.35
2022-10-23T14:50:09.781Z,86.39
2022-10-23T14:51:09.752Z,85.39
2022-10-23T14:52:09.819Z,83.39
2022-10-23T14:53:09.733Z,83.85
2022-10-23T14:54:09.745Z,84.35
2022-10-23T14:55:09.721Z,84.55
2022-10-23T14:56:09.720Z,83.55
2022-10-23T14:57:09.703Z,84.75
2022-10-23T14:58:09.679Z,83.91
2022-10-23T14:59:09.688Z,85.11
2022-10-23T15:00:09.673Z,85.01
2022-10-23T15:01:09.821Z,83.21
2022-10-23T15:02:09.690Z,84.81
2022-10-23T15:03:09.637Z,84.81
2022-10-23T15:04:09.646Z,84.11
2022-10-23T15:05:09.608Z,83.57
2022-10-23T15:06:10.498Z,85.61
2022-10-23T15:07:09.577Z,84.11
2022-10-23T15:08:09.654Z,83.81
2022-10-23T15:09:09.594Z,83.75
2022-10-23T15:10:09.604Z,84.55
2022-10-23T15:11:12.553Z,85.45
2022-10-23T15:12:09.629Z,86.35
2022-10-23T15:13:09.539Z,84.85
2022-10-23T15:14:09.547Z,85.79
2022-10-23T15:15:09.504Z,85.99
2022-10-23T15:16:09.500Z,85.69
2022-10-23T15:17:14.583Z,85.15
2022-10-23T15:18:10.496Z,85.49
2022-10-23T15:19:12.112Z,85.69
2022-10-23T15:20:10.448Z,86.59
2022-10-23T15:21:09.674Z,86.05
2022-10-23T15:22:09.482Z,85.49
2022-10-23T15:23:09.454Z,85.69
2022-10-23T15:24:09.409Z,86.09
2022-10-23T15:25:10.577Z,86.09
2022-10-23T15:26:09.468Z,86.39
2022-10-23T15:28:09.437Z,86.09
2022-10-23T15:29:09.380Z,86.19
2022-10-23T15:30:09.395Z,87.53
2022-10-23T15:31:09.358Z,87.03
2022-10-23T15:32:09.348Z,86.23
2022-10-23T15:33:09.359Z,86.33
2022-10-23T15:34:09.352Z,86.53
2022-10-23T15:35:09.305Z,87.03
2022-10-23T15:36:09.279Z,88.93
2022-10-23T15:37:09.300Z,90.44
2022-10-23T15:38:09.263Z,90.28
2022-10-23T15:39:09.267Z,89.87
2022-10-23T15:40:09.321Z,89.42
2022-10-23T15:41:09.242Z,89.42
2022-10-23T15:42:09.212Z,89.02
2022-10-23T15:43:12.476Z,88.78
2022-10-23T15:44:09.241Z,88.62
2022-10-23T15:45:09.157Z,88.07
2022-10-23T15:46:09.165Z,90.58
2022-10-23T15:47:09.151Z,90.88
2022-10-23T15:48:09.168Z,90.78
2022-10-23T15:49:09.145Z,89.18
2022-10-23T15:50:09.100Z,90.52
2022-10-23T15:51:09.098Z,90.62
2022-10-23T15:53:09.073Z,91.16
2022-10-23T15:54:09.219Z,91.36
2022-10-23T15:55:09.057Z,91.47
2022-10-23T15:56:09.065Z,92.57
2022-10-23T15:57:09.054Z,92.01
2022-10-23T15:58:09.092Z,92.86
2022-10-23T15:59:09.047Z,93.11
2022-10-23T16:00:09.038Z,92.91
2022-10-23T16:01:09.117Z,91.15
2022-10-23T16:02:09.126Z,93.11
2022-10-23T16:03:08.974Z,92.25
2022-10-23T16:04:08.986Z,92.11
2022-10-23T16:05:08.957Z,91.71
2022-10-23T16:06:08.927Z,91.31
2022-10-23T16:07:08.917Z,91.27
2022-10-23T16:08:08.961Z,91.16
2022-10-23T16:09:08.909Z,91.36
2022-10-23T16:10:08.918Z,91.86
2022-10-23T16:11:08.878Z,93.62
2022-10-23T16:12:08.875Z,94.42
2022-10-23T16:13:08.874Z,92.91
2022-10-23T16:14:08.878Z,93.01
2022-10-23T16:15:08.898Z,92.91
2022-10-23T16:16:08.944Z,92.31
2022-10-23T16:17:08.862Z,91.91
2022-10-23T16:18:08.881Z,92.31
2022-10-23T16:19:08.806Z,92.21
2022-10-23T16:20:08.791Z,93.26
2022-10-23T16:21:08.787Z,93.46
2022-10-23T16:22:08.810Z,91.96
2022-10-23T16:23:08.761Z,92.96
2022-10-23T16:24:08.760Z,93.26
2022-10-23T16:25:08.716Z,94.26
2022-10-23T16:26:08.736Z,94.51
2022-10-23T16:27:08.747Z,94.31
2022-10-23T16:28:08.703Z,94.05
2022-10-23T16:29:08.738Z,95.55
2022-10-23T16:30:08.665Z,96.10
2022-10-23T16:31:08.665Z,95.50
2022-10-23T16:32:08.642Z,95.60
2022-10-23T16:33:08.629Z,95.40
2022-10-23T16:34:08.703Z,95.60
2022-10-23T16:35:11.032Z,95.64
2022-10-23T16:36:08.615Z,95.20
2022-10-23T16:37:08.589Z,95.80
2022-10-23T16:38:08.596Z,96.75
2022-10-23T16:39:08.721Z,96.75
2022-10-23T16:40:08.559Z,96.75
2022-10-23T16:41:08.564Z,97.66
2022-10-23T16:42:08.655Z,95.75
2022-10-23T16:43:08.816Z,94.90
2022-10-23T16:44:08.540Z,94.79
2022-10-23T16:45:08.520Z,95.10
2022-10-23T16:46:08.751Z,94.45
2022-10-23T16:47:08.488Z,94.25
2022-10-23T16:48:08.484Z,94.15
2022-10-23T16:49:08.543Z,94.05
2022-10-23T16:50:08.442Z,94.49
2022-10-23T16:51:08.438Z,93.69
2022-10-23T16:52:08.438Z,93.24
2022-10-23T16:53:08.404Z,94.25
2022-10-23T16:54:08.448Z,93.95
2022-10-23T16:55:08.408Z,93.04
2022-10-23T16:56:08.378Z,91.34
2022-10-23T16:57:08.368Z,89.78
2022-10-23T16:58:08.376Z,90.64
2022-10-23T16:59:08.593Z,89.53
2022-10-23T17:00:08.329Z,89.13
2022-10-23T17:01:08.435Z,89.53
2022-10-23T17:02:08.443Z,90.88
2022-10-23T17:03:08.305Z,90.68
2022-10-23T17:04:08.335Z,91.13
2022-10-23T17:05:08.324Z,90.98
2022-10-23T17:06:08.910Z,91.22
2022-10-23T17:07:08.366Z,89.98
2022-10-23T17:08:08.251Z,90.88
2022-10-23T17:09:08.328Z,90.17
2022-10-23T17:10:08.224Z,91.18
2022-10-23T17:11:08.217Z,89.01
2022-10-23T17:12:08.284Z,89.72
2022-10-23T17:13:08.215Z,91.52
2022-10-23T17:14:08.210Z,91.22
2022-10-23T17:15:08.189Z,90.26
2022-10-23T17:16:08.154Z,92.27
2022-10-23T17:17:08.172Z,83.29
2022-10-23T17:18:08.152Z,85.94
2022-10-23T17:19:20.933Z,86.90
2022-10-23T17:20:09.123Z,86.30
2022-10-23T17:21:08.137Z,86.40
2022-10-23T17:22:08.089Z,86.30
2022-10-23T17:23:08.083Z,86.10
2022-10-23T17:24:08.118Z,87.15
2022-10-23T17:25:08.081Z,88.15
2022-10-23T17:26:08.047Z,87.55
2022-10-23T17:27:08.052Z,87.35
2022-10-23T17:28:08.078Z,86.58
2022-10-23T17:29:08.056Z,85.74
2022-10-23T17:30:12.402Z,85.84
2022-10-23T17:31:08.017Z,84.19
2022-10-23T17:32:08.063Z,84.39
2022-10-23T17:33:07.971Z,86.26
2022-10-23T17:34:07.968Z,83.31
2022-10-23T17:35:08.004Z,81.16
2022-10-23T17:36:07.945Z,82.06
2022-10-23T17:37:07.930Z,81.32
2022-10-23T17:38:07.934Z,80.42
2022-10-23T17:39:07.954Z,80.08
2022-10-23T17:40:07.905Z,77.34
2022-10-23T17:41:07.903Z,77.70
2022-10-23T17:42:07.891Z,77.10
2022-10-23T17:43:07.860Z,77.20
2022-10-23T17:44:08.149Z,78.20
2022-10-23T17:45:07.839Z,78.20
2022-10-23T17:46:07.844Z,77.60
2022-10-23T17:47:07.818Z,77.91
2022-10-23T17:48:07.823Z,77.80
2022-10-23T17:49:07.843Z,75.50
2022-10-23T17:50:07.815Z,74.23
2022-10-23T17:51:07.766Z,75.10
2022-10-23T17:52:07.758Z,74.80
2022-10-23T17:53:07.745Z,75.40
2022-10-23T17:54:07.793Z,74.10
2022-10-23T17:55:07.731Z,76.20
2022-10-23T17:56:07.752Z,76.94
2022-10-23T17:57:07.708Z,76.74
2022-10-23T17:58:07.710Z,75.23
2022-10-23T17:59:07.701Z,77.74
2022-10-23T18:00:07.678Z,79.08
2022-10-23T18:01:07.842Z,77.28
2022-10-23T18:02:07.753Z,78.68
2022-10-23T18:03:07.658Z,79.28
2022-10-23T18:04:07.711Z,78.28
2022-10-23T18:05:07.640Z,79.02
2022-10-23T18:06:07.698Z,78.61
2022-10-23T18:07:07.632Z,78.61
2022-10-23T18:08:07.588Z,79.72
2022-10-23T18:09:07.640Z,77.72
2022-10-23T18:10:07.597Z,78.61
2022-10-23T18:11:07.566Z,79.42
2022-10-23T18:12:07.554Z,79.36
2022-10-23T18:13:07.536Z,78.85
2022-10-23T18:14:07.612Z,79.05
2022-10-23T18:15:07.513Z,79.46
2022-10-23T18:16:07.572Z,79.39
2022-10-23T18:17:07.506Z,80.50
2022-10-23T18:18:07.519Z,82.70
2022-10-23T18:19:07.520Z,80.80
2022-10-23T18:20:07.461Z,79.73
2022-10-23T18:21:07.441Z,79.39
2022-10-23T18:22:07.476Z,78.69
2022-10-23T18:23:07.433Z,78.03
2022-10-23T18:24:07.440Z,77.72
2022-10-23T18:25:07.406Z,77.22
2022-10-23T18:26:07.435Z,76.38
2022-10-23T18:27:07.420Z,77.48
2022-10-23T18:28:07.373Z,76.04
2022-10-23T18:29:07.431Z,74.14
2022-10-23T18:30:07.386Z,74.44
2022-10-23T18:31:07.360Z,74.30
2022-10-23T18:32:07.350Z,74.07
2022-10-23T18:33:07.340Z,73.47
2022-10-23T18:34:07.374Z,73.47
2022-10-23T18:35:07.315Z,73.63
2022-10-23T18:36:07.341Z,73.13
2022-10-23T18:37:07.268Z,73.43
2022-10-23T18:38:07.275Z,74.03
2022-10-23T18:39:07.278Z,73.13
2022-10-23T18:40:07.257Z,71.83
2022-10-23T18:41:07.227Z,72.23
2022-10-23T18:42:07.268Z,70.53
2022-10-23T18:43:14.714Z,70.69
2022-10-23T18:44:08.235Z,69.79
2022-10-23T18:45:07.315Z,71.09
2022-10-23T18:46:07.175Z,70.06
2022-10-23T18:47:07.261Z,69.96
2022-10-23T18:48:07.189Z,70.06
2022-10-23T18:49:07.155Z,69.56
2022-10-23T18:50:07.148Z,69.76
2022-10-23T18:51:07.125Z,69.76
2022-10-23T18:52:07.168Z,68.86
2022-10-23T18:53:07.085Z,70.66
2022-10-23T18:54:07.110Z,70.06
2022-10-23T18:55:07.063Z,69.96
2022-10-23T18:56:07.066Z,70.50
2022-10-23T18:57:07.713Z,71.19
2022-10-23T18:58:07.110Z,71.00
2022-10-23T18:59:07.044Z,69.99
2022-10-23T19:00:07.031Z,69.89
2022-10-23T19:01:07.149Z,71.50
2022-10-23T19:02:07.172Z,69.59
2022-10-23T19:03:06.984Z,69.79
2022-10-23T19:04:07.075Z,70.09
2022-10-23T19:05:06.957Z,69.49
2022-10-23T19:06:06.970Z,68.46
2022-10-23T19:07:06.951Z,68.26
2022-10-23T19:08:07.024Z,68.62
2022-10-23T19:09:07.037Z,67.93
2022-10-23T19:10:06.943Z,67.93
2022-10-23T19:11:06.907Z,67.43
2022-10-23T19:12:07.005Z,66.69
2022-10-23T19:13:06.908Z,67.40
2022-10-23T19:14:06.880Z,65.19
2022-10-23T19:15:06.891Z,65.36
2022-10-23T19:16:06.882Z,66.66
2022-10-23T19:17:06.868Z,65.26
2022-10-23T19:18:06.842Z,65.66
2022-10-23T19:19:06.846Z,64.79
2022-10-23T19:20:06.806Z,65.19
2022-10-23T19:21:06.979Z,64.99
2022-10-23T19:22:06.802Z,64.06
2022-10-23T19:23:06.773Z,63.86
2022-10-23T19:24:06.841Z,64.86
2022-10-23T19:25:06.742Z,63.76
2022-10-23T19:26:06.752Z,65.79
2022-10-23T19:27:06.747Z,64.59
2022-10-23T19:28:06.755Z,65.99
2022-10-23T19:29:06.727Z,61.96
2022-10-23T19:30:06.702Z,62.93
2022-10-23T19:31:06.703Z,63.53
2022-10-23T19:32:06.761Z,63.13
2022-10-23T19:33:06.666Z,63.06
2022-10-23T19:34:06.819Z,63.36
2022-10-23T19:35:06.651Z,63.17
2022-10-23T19:36:11.183Z,63.56
2022-10-23T19:37:07.681Z,62.96
2022-10-23T19:38:06.629Z,63.86
2022-10-23T19:39:06.632Z,63.26
2022-10-23T19:40:06.617Z,63.26
2022-10-23T19:41:06.634Z,63.17
2022-10-23T19:42:06.558Z,64.59
2022-10-23T19:43:06.545Z,63.69
2022-10-23T19:44:06.573Z,63.49
2022-10-23T19:45:06.551Z,62.56
2022-10-23T19:46:09.477Z,63.76
2022-10-23T19:47:07.506Z,63.26
2022-10-23T19:48:06.495Z,63.17
2022-10-23T19:49:06.496Z,63.76
2022-10-23T19:50:06.482Z,62.06
2022-10-23T19:51:06.501Z,63.66
2022-10-23T19:52:06.487Z,64.19
2022-10-23T19:53:06.457Z,64.09
2022-10-23T19:54:06.512Z,63.39
2022-10-23T19:55:06.420Z,64.69
2022-10-23T19:56:06.409Z,63.09
2022-10-23T19:57:06.401Z,63.49
2022-10-23T19:58:06.408Z,64.00
2022-10-23T19:59:06.401Z,63.69
2022-10-23T20:00:06.416Z,64.29
2022-10-23T20:01:06.449Z,64.22
2022-10-23T20:02:06.566Z,63.19
2022-10-23T20:03:06.332Z,62.89
2022-10-23T20:04:06.345Z,61.96
2022-10-23T20:05:06.305Z,61.26
2022-10-23T20:06:06.304Z,61.76
2022-10-23T20:07:06.311Z,61.43
2022-10-23T20:08:06.335Z,60.33
2022-10-23T20:09:06.360Z,59.70
2022-10-23T20:10:06.284Z,59.51
2022-10-23T20:11:06.307Z,59.21
2022-10-23T20:12:06.254Z,58.91
2022-10-23T20:13:19.326Z,60.00
2022-10-23T20:14:07.310Z,60.71
2022-10-23T20:15:06.206Z,59.81
2022-10-23T20:16:06.187Z,59.70
2022-10-23T20:17:06.177Z,61.00
2022-10-23T20:18:06.190Z,60.00
2022-10-23T20:19:06.347Z,59.31
2022-10-23T20:20:06.145Z,60.31
2022-10-23T20:21:06.187Z,59.31
2022-10-23T20:22:06.132Z,59.21
2022-10-23T20:23:06.135Z,59.41
2022-10-23T20:24:06.141Z,59.31
2022-10-23T20:25:06.151Z,59.70
2022-10-23T20:26:06.101Z,59.01
2022-10-23T20:27:06.090Z,59.41
2022-10-23T20:28:06.202Z,58.78
2022-10-23T20:29:06.067Z,58.58
2022-10-23T20:30:06.041Z,57.26
2022-10-23T20:31:06.059Z,58.65
2022-10-23T20:32:06.013Z,57.26
2022-10-23T20:33:06.017Z,58.36
2022-10-23T20:34:06.022Z,58.65
2022-10-23T20:35:05.976Z,59.38
2022-10-23T20:36:05.996Z,59.08
2022-10-23T20:37:06.030Z,59.11
2022-10-23T20:38:05.978Z,58.58
2022-10-23T20:39:05.931Z,57.35
2022-10-23T20:40:05.923Z,57.23
2022-10-23T20:41:05.919Z,57.43
2022-10-23T20:42:05.934Z,56.83
2022-10-23T20:43:05.945Z,57.23
2022-10-23T20:44:06.000Z,57.53
2022-10-23T20:45:05.920Z,57.33
2022-10-23T20:46:06.225Z,58.55
2022-10-23T20:47:05.850Z,59.48
2022-10-23T20:48:05.871Z,57.39
2022-10-23T20:49:05.933Z,58.55
2022-10-23T20:50:05.810Z,58.45
2022-10-23T20:51:05.817Z,58.48
2022-10-23T20:52:05.795Z,57.56
2022-10-23T20:53:06.306Z,58.45
2022-10-23T20:54:05.839Z,58.45
2022-10-23T20:55:05.773Z,59.48
2022-10-23T20:56:05.819Z,58.68
2022-10-23T20:57:05.774Z,59.18
2022-10-23T20:58:05.914Z,58.98
2022-10-23T20:59:05.726Z,58.68
2022-10-23T21:00:05.709Z,58.38
2022-10-23T21:01:05.856Z,58.85
2022-10-23T21:02:05.870Z,58.85
2022-10-23T21:03:05.706Z,59.15
2022-10-23T21:04:05.676Z,59.48
2022-10-23T21:05:05.707Z,58.68
2022-10-23T21:06:05.771Z,58.98
2022-10-23T21:07:10.321Z,58.48
2022-10-23T21:08:06.706Z,59.38
2022-10-23T21:09:05.679Z,58.98
2022-10-23T21:10:05.666Z,59.68
2022-10-23T21:11:05.592Z,59.28
2022-10-23T21:12:05.643Z,58.88
2022-10-23T21:13:05.586Z,59.48
2022-10-23T21:14:05.604Z,59.48
2022-10-23T21:15:05.600Z,59.58
2022-10-23T21:16:05.586Z,59.81
2022-10-23T21:17:05.761Z,59.70
2022-10-23T21:18:14.560Z,59.31
2022-10-23T21:19:06.541Z,58.98
2022-10-23T21:20:05.525Z,59.31
2022-10-23T21:21:05.479Z,60.31
2022-10-23T21:22:05.476Z,60.21
2022-10-23T21:23:05.579Z,60.71
2022-10-23T21:24:05.515Z,60.21
2022-10-23T21:25:05.472Z,61.21
2022-10-23T21:26:07.339Z,61.00
2022-10-23T21:27:05.441Z,60.63
2022-10-23T21:28:05.420Z,61.43
2022-10-23T21:29:20.037Z,61.13
2022-10-23T21:30:06.433Z,60.63
2022-10-23T21:31:05.390Z,61.54
2022-10-23T21:32:05.377Z,61.73
2022-10-23T21:33:05.359Z,61.57
2022-10-23T21:34:05.400Z,61.76
2022-10-23T21:35:05.351Z,61.43
2022-10-23T21:36:13.676Z,61.36
2022-10-23T21:37:14.743Z,62.66
2022-10-23T21:38:06.320Z,61.96
2022-10-23T21:39:05.294Z,61.33
2022-10-23T21:40:05.318Z,61.73
2022-10-23T21:41:05.270Z,61.54
2022-10-23T21:42:05.313Z,61.46
2022-10-23T21:43:07.015Z,61.87
2022-10-23T21:44:05.234Z,61.54
2022-10-23T21:45:05.222Z,61.87
2022-10-23T21:46:06.222Z,61.73
2022-10-23T21:47:05.239Z,60.44
2022-10-23T21:48:05.266Z,61.73
2022-10-23T21:49:05.175Z,62.34
2022-10-23T21:50:05.171Z,61.93
2022-10-23T21:51:05.166Z,60.53
2022-10-23T21:52:05.222Z,61.13
2022-10-23T21:53:05.216Z,61.43
2022-10-23T21:54:05.137Z,61.73
2022-10-23T21:55:05.139Z,60.83
2022-10-23T21:56:05.131Z,61.73
2022-10-23T21:57:05.146Z,61.54
2022-10-23T21:58:05.117Z,60.61
2022-10-23T22:00:05.179Z,60.41
2022-10-23T22:01:05.254Z,60.21
2022-10-23T22:02:05.324Z,60.61
2022-10-23T22:03:05.050Z,59.91
2022-10-23T22:04:05.037Z,60.08
2022-10-23T22:05:05.075Z,60.61
2022-10-23T22:06:05.010Z,60.21
2022-10-23T22:07:05.010Z,61.10
2022-10-23T22:08:05.021Z,61.33
2022-10-23T22:09:05.130Z,61.93
2022-10-23T22:10:05.050Z,62.43
2022-10-23T22:11:04.941Z,62.86
2022-10-23T22:12:04.946Z,61.73
2022-10-23T22:13:04.938Z,62.93
2022-10-23T22:14:04.940Z,62.06
2022-10-23T22:15:04.953Z,62.46
2022-10-23T22:16:04.997Z,62.86
2022-10-23T22:17:04.884Z,62.46
2022-10-23T22:18:04.886Z,62.66
2022-10-23T22:19:04.868Z,62.43
2022-10-23T22:20:04.853Z,61.63
2022-10-23T22:21:04.862Z,62.76
2022-10-23T22:22:04.832Z,62.43
2022-10-23T22:23:04.820Z,62.46
2022-10-23T22:24:04.960Z,62.63
2022-10-23T22:25:04.806Z,62.56
2022-10-23T22:26:04.771Z,62.56
2022-10-23T22:27:04.763Z,61.73
2022-10-23T22:28:04.926Z,61.83
2022-10-23T22:29:04.760Z,62.50
2022-10-23T22:30:04.728Z,61.83
2022-10-23T22:31:04.755Z,62.34
2022-10-23T22:32:04.736Z,62.34
2022-10-23T22:33:04.736Z,61.63
2022-10-23T22:34:13.312Z,63.20
2022-10-23T22:35:05.668Z,63.03
2022-10-23T22:36:04.717Z,62.93
2022-10-23T22:37:04.726Z,61.96
2022-10-23T22:38:04.654Z,61.83
2022-10-23T22:39:04.643Z,62.93
2022-10-23T22:40:04.617Z,62.43
2022-10-23T22:41:04.827Z,61.93
2022-10-23T22:42:04.662Z,61.63
2022-10-23T22:43:04.708Z,61.21
2022-10-23T22:44:04.571Z,61.80
2022-10-23T22:45:04.592Z,61.54
2022-10-23T22:46:04.597Z,61.41
2022-10-23T22:47:04.563Z,62.53
2022-10-23T22:48:04.566Z,62.63
2022-10-23T22:50:04.585Z,62.63
2022-10-23T22:51:06.317Z,62.56
2022-10-23T22:52:04.567Z,62.96
2022-10-23T22:53:04.624Z,63.06
2022-10-23T22:54:04.472Z,63.69
2022-10-23T22:55:04.453Z,64.19
2022-10-23T22:56:04.443Z,63.09
2022-10-23T22:57:04.512Z,62.37
2022-10-23T22:58:04.462Z,62.46
2022-10-23T22:59:04.417Z,62.06
2022-10-23T23:00:04.426Z,62.46
2022-10-23T23:01:04.433Z,62.46
2022-10-23T23:02:04.440Z,62.46
2022-10-23T23:03:04.432Z,63.36
2022-10-23T23:04:19.483Z,63.19
2022-10-23T23:05:05.426Z,64.00
2022-10-23T23:06:04.354Z,64.42
2022-10-23T23:07:04.532Z,64.52
2022-10-23T23:08:04.321Z,63.65
2022-10-23T23:09:04.349Z,65.95
2022-10-23T23:10:04.303Z,65.09
2022-10-23T23:11:04.302Z,64.55
2022-10-23T23:12:04.755Z,65.19
2022-10-23T23:13:04.282Z,65.48
2022-10-23T23:14:04.272Z,65.19
2022-10-23T23:15:04.275Z,65.39
2022-10-23T23:16:04.250Z,65.09
2022-10-23T23:17:04.249Z,66.89
2022-10-23T23:18:04.200Z,67.82
2022-10-23T23:19:04.426Z,68.26
2022-10-23T23:20:04.184Z,66.75
2022-10-23T23:21:04.193Z,66.95
2022-10-23T23:22:04.208Z,67.15
2022-10-23T23:23:04.173Z,67.92
2022-10-23T23:24:04.160Z,67.15
2022-10-23T23:25:04.181Z,68.05
2022-10-23T23:26:04.162Z,67.76
2022-10-23T23:27:04.190Z,68.15
2022-10-23T23:28:04.101Z,68.59
2022-10-23T23:29:04.128Z,68.99
2022-10-23T23:30:04.108Z,70.03
2022-10-23T23:31:04.120Z,69.92
2022-10-23T23:32:04.089Z,70.66
2022-10-23T23:33:04.050Z,70.50